Time;durP1;ratioP1;P1;durP2;ratioP2;P2;SDS_P1;SDS_P2;PMS_P1;PMS_P2;Temp;Humidity;BMP_temperature;BMP_pressure;BME280_temperature;BME280_humidity;BME280_pressure;Samples;Min_cycle;Max_cycle;Signal;HPM_P1;HPM_P2
2024/01/03 12:21:20;;;;;;;606.23;193.53;;;12.70;1.00;;;;;;5064385;28;20544;-77
2024/01/03 12:23:59;;;;;;;699.13;221.00;;;12.80;1.00;;;;;;5061162;28;20467;-78
2024/01/03 12:26:26;;;;;;;628.00;168.23;;;12.90;1.00;;;;;;5060172;28;20230;-79
2024/01/03 12:29:11;;;;;;;649.73;167.10;;;12.90;1.00;;;;;;5069910;28;20444;-79
2024/01/03 12:31:55;;;;;;;738.13;219.23;;;13.00;1.00;;;;;;5052131;28;20888;-78
2024/01/03 12:34:21;;;;;;;773.58;266.33;;;13.00;1.00;;;;;;5064805;28;20417;-78
2024/01/03 12:36:55;;;;;;;801.93;233.40;;;12.80;1.00;;;;;;5052732;28;20234;-78
2024/01/03 12:39:35;;;;;;;797.45;242.73;;;12.80;1.00;;;;;;5063854;28;20463;-78
2024/01/03 12:42:09;;;;;;;800.00;276.70;;;12.90;1.00;;;;;;5062437;28;20182;-79
2024/01/03 12:44:39;;;;;;;762.03;240.05;;;12.80;1.00;;;;;;5058162;28;20163;-79
2024/01/03 12:47:09;;;;;;;791.67;210.18;;;13.00;1.00;;;;;;5057414;28;20187;-79
2024/01/03 12:49:39;;;;;;;809.65;324.48;;;12.90;1.00;;;;;;5060423;28;20175;-77
2024/01/03 12:52:09;;;;;;;815.15;272.95;;;13.00;1.00;;;;;;5068960;28;20244;-77
2024/01/03 12:54:35;;;;;;;568.33;140.95;;;13.00;1.00;;;;;;5064618;28;20183;-77
2024/01/03 12:57:08;;;;;;;232.90;59.70;;;13.00;1.00;;;;;;5061198;28;20236;-77
2024/01/03 12:59:35;;;;;;;93.80;35.05;;;13.00;1.00;;;;;;5056363;28;20574;-77
2024/01/03 13:02:01;;;;;;;106.60;37.45;;;13.10;1.00;;;;;;5059260;28;20638;-78
2024/01/03 13:04:55;;;;;;;56.97;27.20;;;13.30;1.00;;;;;;5058516;28;20580;-82
2024/01/03 13:07:43;;;;;;;48.08;25.05;;;13.00;1.00;;;;;;5059883;28;20193;-78
2024/01/03 13:13:31;;;;;;;44.97;25.67;;;13.00;1.00;;;;;;5055004;28;20204;-83
2024/01/03 13:16:08;;;;;;;19.07;15.97;;;13.00;1.00;;;;;;5055871;28;20458;-78
2024/01/03 13:18:34;;;;;;;21.40;16.10;;;13.00;1.00;;;;;;5053589;28;20652;-77
2024/01/03 13:20:59;;;;;;;5.80;5.30;;;13.00;1.00;;;;;;5057667;28;20260;-82
2024/01/03 13:23:25;;;;;;;;;;;13.00;1.00;;;;;;5057279;28;20031;-78
2024/01/03 13:25:55;;;;;;;;;;;12.80;1.00;;;;;;5053737;28;20230;-78
2024/01/03 13:28:25;;;;;;;5.90;5.50;;;12.80;1.00;;;;;;5063444;28;20483;-75
2024/01/03 13:31:01;;;;;;;;;;;12.70;1.00;;;;;;5059982;28;20272;-79
2024/01/03 13:33:27;;;;;;;0.50;0.50;;;12.50;1.00;;;;;;5041586;28;20166;-80
2024/01/03 13:35:55;;;;;;;;;;;12.40;1.00;;;;;;5049939;28;20046;-79
2024/01/03 13:38:21;;;;;;;;;;;12.40;1.00;;;;;;5048758;28;20157;-79
2024/01/03 13:43:49;;;;;;;;;;;12.20;1.00;;;;;;5052645;28;20173;-83
2024/01/03 13:46:26;;;;;;;;;;;12.20;1.00;;;;;;5040359;28;20147;-81
2024/01/03 13:49:13;;;;;;;;;;;12.30;1.00;;;;;;5048238;28;20159;-83
2024/01/03 13:51:51;;;;;;;;;;;12.30;1.00;;;;;;5048048;28;20145;-81
2024/01/03 13:54:19;;;;;;;;;;;12.20;1.00;;;;;;5047085;28;20173;-78
2024/01/03 13:56:45;;;;;;;2.40;2.30;;;12.30;1.00;;;;;;5047126;28;20159;-79
2024/01/03 13:59:11;;;;;;;4.55;4.25;;;12.40;1.00;;;;;;5027197;28;20405;-81
2024/01/03 14:01:37;;;;;;;9.85;8.85;;;12.50;1.00;;;;;;5043935;28;20234;-80
2024/01/03 14:04:07;;;;;;;2.70;2.50;;;12.50;1.00;;;;;;5043362;28;20647;-80
2024/01/03 14:06:49;;;;;;;;;;;12.40;1.00;;;;;;5038550;28;20032;-79
2024/01/03 14:09:19;;;;;;;;;;;12.30;1.00;;;;;;5040333;28;20235;-81
2024/01/03 14:11:49;;;;;;;;;;;12.10;1.00;;;;;;5047237;28;20249;-80
2024/01/03 14:14:20;;;;;;;;;;;12.10;1.00;;;;;;5049151;28;20160;-78
2024/01/03 14:16:49;;;;;;;;;;;12.00;1.00;;;;;;5046365;28;20146;-78
2024/01/03 14:22:19;;;;;;;;;;;11.90;1.00;;;;;;5043422;28;20230;-79
2024/01/03 14:24:50;;;;;;;;;;;11.90;1.00;;;;;;5039931;28;20187;-78
2024/01/03 14:27:31;;;;;;;;;;;12.00;1.00;;;;;;5044865;28;19905;-79
2024/01/03 14:30:19;;;;;;;;;;;12.00;1.00;;;;;;5041001;28;19905;-79
2024/01/03 14:32:55;;;;;;;;;;;12.00;1.00;;;;;;5052890;28;19908;-79
2024/01/03 14:35:21;;;;;;;;;;;12.00;1.00;;;;;;5055106;28;19904;-78
2024/01/03 14:38:01;;;;;;;;;;;12.00;1.00;;;;;;5049015;28;19915;-77
2024/01/03 14:40:28;;;;;;;;;;;11.90;1.00;;;;;;5048383;28;19944;-78
2024/01/03 14:43:10;;;;;;;;;;;11.90;1.00;;;;;;5047623;28;19915;-78
2024/01/03 14:45:55;;;;;;;;;;;11.80;1.00;;;;;;5038438;28;19912;-78
2024/01/03 14:48:27;;;;;;;;;;;11.80;1.00;;;;;;5034699;28;20043;-78
2024/01/03 14:51:05;;;;;;;;;;;11.80;1.00;;;;;;5035203;28;19928;-77
2024/01/03 14:53:37;;;;;;;;;;;11.80;1.00;;;;;;5036706;28;19905;-78
2024/01/03 14:56:32;;;;;;;;;;;11.70;1.00;;;;;;5046150;28;20379;-78
2024/01/03 14:58:58;;;;;;;;;;;11.60;1.00;;;;;;5038614;28;19970;-78
2024/01/03 15:01:31;;;;;;;;;;;11.50;1.00;;;;;;5041888;28;20357;-77
2024/01/03 15:04:13;;;;;;;;;;;11.40;1.00;;;;;;5042835;28;19950;-77
2024/01/03 15:06:58;;;;;;;;;;;11.40;1.00;;;;;;5039888;28;19909;-78
2024/01/03 15:09:24;;;;;;;;;;;11.30;1.00;;;;;;5044111;28;20402;-79
2024/01/03 15:12:25;;;;;;;;;;;11.30;1.00;;;;;;5051067;28;19928;-79
2024/01/03 15:15:08;;;;;;;;;;;11.30;1.00;;;;;;5040254;28;19905;-79
2024/01/03 15:17:34;;;;;;;;;;;11.30;1.00;;;;;;5051000;28;20356;-79
2024/01/03 15:20:07;;;;;;;;;;;11.20;1.00;;;;;;5051462;28;19995;-78
2024/01/03 15:22:43;;;;;;;;;;;11.10;1.00;;;;;;5050645;28;20356;-76
2024/01/03 15:25:13;;;;;;;;;;;11.10;1.00;;;;;;5038150;28;19998;-79
2024/01/03 15:27:43;;;;;;;;;;;11.00;1.00;;;;;;5038545;28;19908;-79
2024/01/03 15:30:10;;;;;;;;;;;11.00;1.00;;;;;;5058828;28;19909;-77
2024/01/03 15:32:37;;;;;;;;;;;10.90;1.00;;;;;;5059764;28;20003;-77
2024/01/03 15:35:03;;;;;;;;;;;10.90;1.00;;;;;;5037720;28;19913;-77
2024/01/03 15:37:32;;;;;;;;;;;10.90;1.00;;;;;;5050507;28;19909;-77
2024/01/03 15:40:01;;;;;;;;;;;10.90;1.00;;;;;;5054763;28;20416;-77
2024/01/03 15:42:38;;;;;;;;;;;10.90;1.00;;;;;;5046075;28;19966;-78
2024/01/03 15:45:13;;;;;;;;;;;10.80;1.00;;;;;;5041969;28;19909;-77
2024/01/03 15:48:02;;;;;;;;;;;10.80;1.00;;;;;;5046003;28;19958;-76
2024/01/03 15:50:32;;;;;;;;;;;10.70;1.00;;;;;;5038952;28;20419;-77
2024/01/03 15:53:09;;;;;;;;;;;10.70;1.00;;;;;;5046940;28;19908;-81
2024/01/03 15:55:37;;;;;;;;;;;;;;;;;;5039506;28;19916;-78
2024/01/03 15:58:03;;;;;;;;;;;10.60;1.00;;;;;;5074895;28;19944;-78
2024/01/03 16:00:30;;;;;;;;;;;10.60;1.00;;;;;;5041590;28;19916;-78
2024/01/03 16:03:07;;;;;;;;;;;10.40;1.00;;;;;;5039955;28;19915;-78
2024/01/03 16:05:37;;;;;;;;;;;10.50;1.00;;;;;;5044501;28;19940;-78
2024/01/03 16:08:03;;;;;;;;;;;10.50;1.00;;;;;;5037966;28;19905;-78
2024/01/03 16:10:32;;;;;;;;;;;10.50;1.00;;;;;;5046324;28;19931;-78
2024/01/03 16:13:31;;;;;;;;;;;10.40;1.00;;;;;;5043996;28;19951;-78
2024/01/03 16:16:01;;;;;;;;;;;10.40;1.00;;;;;;5043856;28;19905;-78
2024/01/03 16:18:27;;;;;;;;;;;10.40;1.00;;;;;;5040533;28;19905;-78
2024/01/03 16:20:52;;;;;;;;;;;10.50;1.00;;;;;;5050093;28;19921;-78
2024/01/03 16:23:19;;;;;;;;;;;10.50;1.00;;;;;;5041049;28;20315;-80
2024/01/03 16:25:56;;;;;;;;;;;10.40;1.00;;;;;;5038249;28;19913;-80
2024/01/03 16:28:45;;;;;;;;;;;10.40;1.00;;;;;;5042697;28;19905;-81
2024/01/03 16:31:26;;;;;;;;;;;10.40;1.00;;;;;;5043568;28;19991;-81
2024/01/03 16:36:55;;;;;;;;;;;10.40;1.00;;;;;;5042429;28;20468;-81
2024/01/03 16:42:23;;;;;;;;;;;10.30;1.00;;;;;;5037965;28;19912;-81
2024/01/03 16:44:49;;;;;;;;;;;10.20;1.00;;;;;;5043350;28;19905;-80
2024/01/03 16:47:15;;;;;;;;;;;10.20;1.00;;;;;;5048734;28;20011;-75
2024/01/03 16:49:49;;;;;;;;;;;10.20;1.00;;;;;;5039987;28;20084;-75
2024/01/03 16:52:25;;;;;;;;;;;10.20;1.00;;;;;;5044065;28;19908;-77
2024/01/03 16:57:54;;;;;;;;;;;10.20;1.00;;;;;;5043248;28;19913;-78
2024/01/03 17:00:20;;;;;;;;;;;10.30;1.00;;;;;;5041592;28;20268;-77
2024/01/03 17:02:49;;;;;;;;;;;10.30;1.00;;;;;;5041880;28;19944;-77
2024/01/03 17:05:31;;;;;;;;;;;10.30;1.00;;;;;;5049841;28;20055;-76
2024/01/03 17:08:02;;;;;;;;;;;10.20;1.00;;;;;;5054502;28;19917;-76
2024/01/03 17:10:31;;;;;;;;;;;10.30;1.90;;;;;;5045885;28;20275;-79
2024/01/03 17:13:07;;;;;;;;;;;10.30;1.00;;;;;;5044635;28;19912;-78
2024/01/03 17:15:40;;;;;;;;;;;10.30;2.10;;;;;;5047000;28;19909;-79
2024/01/03 17:18:08;;;;;;;;;;;10.30;1.00;;;;;;5038881;28;19905;-79
2024/01/03 17:20:43;;;;;;;;;;;10.30;1.10;;;;;;5045168;28;19924;-79
2024/01/03 17:23:19;;;;;;;;;;;10.30;3.10;;;;;;5052604;28;19917;-79
2024/01/03 17:25:56;;;;;;;;;;;10.30;1.00;;;;;;5044387;28;19959;-79
2024/01/03 17:28:44;;;;;;;;;;;10.30;1.00;;;;;;5047826;28;19905;-79
2024/01/03 17:34:12;;;;;;;;;;;10.30;1.00;;;;;;5049046;28;20376;-79
2024/01/03 17:36:49;;;;;;;;;;;10.30;1.00;;;;;;5049032;28;19944;-79
2024/01/03 17:39:25;;;;;;;;;;;10.30;1.00;;;;;;5043010;28;19921;-78
2024/01/03 17:42:08;;;;;;;;;;;10.10;1.00;;;;;;5049236;28;19905;-80
2024/01/03 17:44:55;;;;;;;;;;;10.00;1.00;;;;;;5048362;28;19999;-79
2024/01/03 17:47:31;;;;;;;;;;;9.80;1.00;;;;;;5041122;28;19909;-78
2024/01/03 17:50:14;;;;;;;;;;;9.70;1.00;;;;;;5044385;28;19904;-79
2024/01/03 17:55:44;;;;;;;;;;;9.50;1.00;;;;;;5042633;28;20019;-75
2024/01/03 17:58:19;;;;;;;;;;;9.50;1.00;;;;;;5037985;28;20296;-76
2024/01/03 18:00:55;;;;;;;;;;;9.50;1.00;;;;;;5040255;28;19917;-77
2024/01/03 18:03:24;;;;;;;;;;;9.50;1.00;;;;;;5042847;28;20328;-78
2024/01/03 18:05:49;;;;;;;;;;;9.50;1.00;;;;;;5036523;28;19905;-82
2024/01/03 18:08:49;;;;;;;;;;;9.60;1.00;;;;;;5036508;28;19905;-85
2024/01/03 18:14:43;;;;;;;;;;;9.30;5.80;;;;;;5042593;28;20375;-87
2024/01/03 18:17:15;;;;;;;;;;;9.20;11.00;;;;;;5040380;28;20018;-78
2024/01/03 18:19:49;;;;;;;;;;;9.20;14.80;;;;;;5047955;28;20378;-80
2024/01/03 18:22:21;;;;;;;;;;;9.20;17.00;;;;;;5038751;28;19917;-79
2024/01/03 18:25:01;;;;;;;;;;;9.10;17.80;;;;;;5037076;28;20728;-81
2024/01/03 18:27:43;;;;;;;;;;;9.20;20.60;;;;;;5040903;28;19956;-78
2024/01/03 18:30:12;;;;;;;;;;;9.10;20.10;;;;;;5045851;28;20376;-77
2024/01/03 18:32:37;;;;;;;;;;;9.00;21.20;;;;;;5039087;28;20328;-77
2024/01/03 18:35:05;;;;;;;;;;;9.00;26.40;;;;;;5038094;28;19945;-77
2024/01/03 18:37:33;;;;;;;;;;;9.10;21.10;;;;;;5037466;28;19909;-77
2024/01/03 18:40:02;;;;;;;;;;;9.10;20.70;;;;;;5040282;28;19963;-82
2024/01/03 18:42:28;;;;;;;;;;;9.10;18.80;;;;;;5044284;28;19969;-83
2024/01/03 18:44:54;;;;;;;;;;;9.10;19.00;;;;;;5040617;28;19964;-82
2024/01/03 18:47:28;;;;;;;;;;;9.10;22.30;;;;;;5042540;28;20341;-82
2024/01/03 18:49:55;;;;;;;;;;;9.10;23.90;;;;;;5043136;28;19912;-82
2024/01/03 18:55:25;;;;;;;;;;;9.10;26.90;;;;;;5041797;28;19931;-77
2024/01/03 18:57:51;;;;;;;;;;;9.10;31.00;;;;;;5035683;28;19916;-77
2024/01/03 19:00:25;;;;;;;;;;;9.00;38.50;;;;;;5036224;28;19916;-77
2024/01/03 19:02:51;;;;;;;;;;;8.90;38.70;;;;;;5039422;28;19912;-76
2024/01/03 19:05:19;;;;;;;;;;;8.90;42.00;;;;;;5040466;28;19905;-76
2024/01/03 19:07:49;;;;;;;;;;;8.90;38.70;;;;;;5039937;28;19913;-75
2024/01/03 19:10:15;;;;;;;;;;;9.00;33.30;;;;;;5044543;28;19908;-76
2024/01/03 19:13:01;;;;;;;;;;;9.00;39.60;;;;;;5040793;28;19915;-76
2024/01/03 19:15:31;;;;;;;;;;;9.00;38.80;;;;;;5049675;28;19958;-76
2024/01/03 19:18:32;;;;;;;;;;;9.00;42.10;;;;;;5040142;28;19963;-77
2024/01/03 19:21:03;;;;;;;;;;;8.90;38.70;;;;;;5039726;28;19976;-77
2024/01/03 19:23:31;;;;;;;;;;;8.90;42.00;;;;;;5043598;28;20381;-77
2024/01/03 19:25:57;;;;;;;;;;;9.00;28.10;;;;;;5039677;28;19947;-76
2024/01/03 19:28:50;;;;;;;;;;;8.90;21.30;;;;;;5040802;28;19913;-76
2024/01/03 19:31:16;;;;;;;;;;;8.90;11.20;;;;;;5035763;28;20427;-77
2024/01/03 19:33:47;;;;;;;;;;;8.90;12.60;;;;;;5036060;28;20323;-77
2024/01/03 19:36:14;;;;;;;;;;;8.90;9.10;;;;;;5051920;28;19952;-76
2024/01/03 19:38:39;;;;;;;;;;;8.90;9.10;;;;;;5051973;28;19913;-76
2024/01/03 19:41:19;;;;;;;;;;;8.90;5.20;;;;;;5034913;28;20414;-82
2024/01/03 19:43:49;;;;;;;;;;;9.00;1.00;;;;;;5046335;28;20434;-82
2024/01/03 19:46:33;;;;;;;;;;;9.00;1.00;;;;;;5044111;28;19909;-82
2024/01/03 19:52:13;;;;;;;;;;;9.00;7.30;;;;;;5047482;28;19916;-82
2024/01/03 19:54:56;;;;;;;;;;;8.90;6.20;;;;;;5041363;28;19911;-76
2024/01/03 19:57:25;;;;;;;;;;;8.90;5.70;;;;;;5045931;28;19909;-76
2024/01/03 19:59:51;;;;;;;;;;;8.90;9.50;;;;;;5040418;28;19908;-77
2024/01/03 20:02:19;;;;;;;;;;;8.90;12.20;;;;;;5051290;28;19905;-77
2024/01/03 20:04:45;;;;;;;;;;;8.90;12.70;;;;;;5056874;28;19915;-77
2024/01/03 20:07:15;;;;;;;;;;;8.90;17.80;;;;;;5039305;28;19904;-77
2024/01/03 20:09:40;;;;;;;;;;;9.00;13.00;;;;;;5039384;28;19908;-77
2024/01/03 20:12:06;;;;;;;;;;;9.00;13.70;;;;;;5044962;28;20245;-78
2024/01/03 20:14:32;;;;;;;;;;;9.00;15.90;;;;;;5040456;28;19909;-78
2024/01/03 20:16:58;;;;;;;;;;;9.00;7.70;;;;;;5044471;28;19905;-77
2024/01/03 20:19:23;;;;;;;;;;;9.00;10.00;;;;;;5044739;28;19917;-77
2024/01/03 20:21:49;;;;;;;;;;;8.90;9.90;;;;;;5033123;28;19932;-77
2024/01/03 20:24:26;;;;;;;;;;;;;;;;;;5038883;28;19913;-77
2024/01/03 20:26:57;;;;;;;;;;;8.90;4.70;;;;;;5036451;28;20300;-82
2024/01/03 20:29:43;;;;;;;;;;;8.80;7.90;;;;;;5043792;28;20039;-82
2024/01/03 20:35:12;;;;;;;;;;;8.80;13.00;;;;;;5047182;28;19916;-82
2024/01/03 20:40:41;;;;;;;;;;;8.90;16.10;;;;;;5039905;28;19998;-78
2024/01/03 20:43:20;;;;;;;;;;;8.90;19.10;;;;;;5049545;28;19905;-78
2024/01/03 20:45:55;;;;;;;;;;;9.10;11.60;;;;;;5054777;28;19905;-76
2024/01/03 20:48:37;;;;;;;;;;;9.00;14.00;;;;;;5057196;28;19947;-76
2024/01/03 20:51:04;;;;;;;;;;;9.00;9.70;;;;;;5039345;28;19905;-77
2024/01/03 20:53:30;;;;;;;;;;;9.10;8.50;;;;;;5043902;28;19912;-77
2024/01/03 20:56:01;;;;;;;;;;;9.10;12.40;;;;;;5048732;28;20379;-77
2024/01/03 20:58:41;;;;;;;;;;;9.10;5.10;;;;;;5047573;28;20007;-77
2024/01/03 21:01:13;;;;;;;;;;;9.10;5.00;;;;;;5037403;28;19995;-77
2024/01/03 21:03:49;;;;;;;;;;;9.10;6.70;;;;;;5038352;28;19963;-77
2024/01/03 21:06:31;;;;;;;;;;;;;;;;;;5037811;28;19963;-78
2024/01/03 21:09:01;;;;;;;;;;;9.10;1.70;;;;;;5041099;28;19916;-77
2024/01/03 21:11:37;;;;;;;;;;;9.00;3.70;;;;;;5037887;28;19904;-83
2024/01/03 21:14:04;;;;;;;;;;;9.10;2.40;;;;;;5040627;28;20004;-82
2024/01/03 21:16:32;;;;;;;;;;;9.10;1.00;;;;;;5037175;28;19913;-83
2024/01/03 21:18:57;;;;;;;;;;;9.10;3.10;;;;;;5050658;28;19905;-82
2024/01/03 21:21:25;;;;;;;;;;;9.00;1.00;;;;;;5049129;28;19920;-83
2024/01/03 21:24:25;;;;;;;;;;;9.10;3.60;;;;;;5037320;28;19913;-85
2024/01/03 21:26:56;;;;;;;;;;;9.10;1.00;;;;;;5043016;28;19913;-78
2024/01/03 21:29:22;;;;;;;;;;;9.20;1.00;;;;;;5038988;28;20365;-82
2024/01/03 21:31:49;;;;;;;;;;;9.20;1.00;;;;;;5035557;28;19905;-80
2024/01/03 21:34:25;;;;;;;;;;;9.20;1.00;;;;;;5036690;28;20002;-82
2024/01/03 21:36:55;;;;;;;;;;;9.30;1.00;;;;;;5052408;28;19999;-81
2024/01/03 21:39:33;;;;;;;;;;;9.20;1.00;;;;;;5053564;28;19916;-78
2024/01/03 21:42:31;;;;;;;;;;;9.20;1.00;;;;;;5039822;28;20391;-86
2024/01/03 21:48:00;;;;;;;;;;;9.20;1.00;;;;;;5053400;28;19991;-83
2024/01/03 21:50:26;;;;;;;;;;;9.20;1.00;;;;;;5042213;28;20357;-75
2024/01/03 21:52:56;;;;;;;;;;;9.20;1.00;;;;;;5048173;28;19943;-76
2024/01/03 21:55:43;;;;;;;;;;;9.20;1.00;;;;;;5041519;28;19909;-77
2024/01/03 22:01:12;;;;;;;;;;;9.30;1.00;;;;;;5042003;28;20014;-75
2024/01/03 22:03:37;;;;;;;;;;;9.20;1.00;;;;;;5056027;28;19908;-88
2024/01/03 22:06:08;;;;;;;;;;;9.30;1.00;;;;;;5042667;28;19912;-72
2024/01/03 22:08:34;;;;;;;;;;;9.30;1.00;;;;;;5040277;28;19905;-72
2024/01/03 22:11:02;;;;;;;;;;;9.30;1.00;;;;;;5037367;28;19912;-72
2024/01/03 22:13:31;;;;;;;;;;;9.30;1.00;;;;;;5035688;28;19911;-72
2024/01/03 22:15:57;;;;;;;;;;;9.30;1.00;;;;;;5039274;28;20359;-72
2024/01/03 22:18:23;;;;;;;;;;;9.30;1.00;;;;;;5055623;28;19905;-72
2024/01/03 22:20:48;;;;;;;;;;;9.30;1.00;;;;;;5039438;28;19921;-72
2024/01/03 22:23:19;;;;;;;;;;;9.40;1.00;;;;;;5035492;28;19913;-71
2024/01/03 22:25:49;;;;;;;;;;;9.40;1.00;;;;;;5038641;28;19920;-74
2024/01/03 22:34:25;;;;;;;;;;;9.40;1.00;;;;;;5039804;28;19916;-83
2024/01/03 22:36:55;;;;;;;;;;;9.40;1.20;;;;;;5036401;28;19959;-84
2024/01/03 22:39:25;;;;;;;;;;;9.30;6.10;;;;;;5034724;28;19916;-84
2024/01/03 22:42:19;;;;;;;;;;;9.30;14.00;;;;;;5036377;28;20565;-85
2024/01/03 22:44:49;;;;;;;;;;;9.30;16.70;;;;;;5035930;28;19976;-84
2024/01/03 22:47:15;;;;;;;;;;;9.10;26.70;;;;;;5042199;28;19913;-83
2024/01/03 22:55:47;;;;;;;;;;;9.20;36.30;;;;;;5035790;28;20322;-84
2024/01/03 23:01:16;;;;;;;;;;;9.10;42.20;;;;;;5049100;28;20384;-83
2024/01/03 23:04:13;;;;;;;;;;;9.10;41.90;;;;;;5040195;28;19925;-84
2024/01/03 23:07:07;;;;;;;;;;;9.10;38.80;;;;;;5041889;28;19912;-84
2024/01/03 23:09:37;;;;;;;;;;;9.20;39.00;;;;;;5045399;28;19951;-83
2024/01/03 23:12:03;;;;;;;;;;;9.20;39.00;;;;;;5047978;28;19904;-77
2024/01/03 23:15:01;;;;;;;;;;;9.20;42.20;;;;;;5043809;28;19920;-77
2024/01/03 23:17:37;;;;;;;;;;;9.10;38.90;;;;;;5039783;28;19905;-77
2024/01/03 23:20:03;;;;;;;;;;;9.00;38.80;;;;;;5035622;28;19917;-78
2024/01/03 23:22:29;;;;;;;;;;;8.90;38.70;;;;;;5042929;28;19920;-78
2024/01/03 23:24:54;;;;;;;;;;;8.90;42.00;;;;;;5051319;28;19913;-78
2024/01/03 23:27:31;;;;;;;;;;;8.90;41.90;;;;;;5047229;28;19913;-77
2024/01/03 23:30:02;;;;;;;;;;;8.90;42.10;;;;;;5045354;28;19916;-77
2024/01/03 23:32:43;;;;;;;;;;;8.90;41.90;;;;;;5048741;28;19908;-77
2024/01/03 23:35:13;;;;;;;;;;;8.90;38.80;;;;;;5047807;28;19909;-77
2024/01/03 23:37:49;;;;;;;;;;;8.80;38.60;;;;;;5046167;28;19987;-78
2024/01/03 23:40:15;;;;;;;;;;;8.80;41.90;;;;;;5034135;28;19913;-78
2024/01/03 23:42:55;;;;;;;;;;;8.70;41.80;;;;;;5044660;28;19913;-76
2024/01/03 23:45:26;;;;;;;;;;;8.80;38.60;;;;;;5034124;28;19905;-76
2024/01/03 23:47:55;;;;;;;;;;;8.80;42.10;;;;;;5035118;28;19905;-76
2024/01/03 23:50:21;;;;;;;;;;;8.90;38.80;;;;;;5038524;28;19909;-77
2024/01/03 23:52:46;;;;;;;;;;;8.90;42.20;;;;;;5034421;28;20293;-77
2024/01/03 23:55:13;;;;;;;;;;;9.00;42.20;;;;;;5042406;28;19931;-77
2024/01/03 23:57:43;;;;;;;;;;;9.00;42.00;;;;;;5034821;28;19912;-84
